Time;durP1;ratioP1;P1;durP2;ratioP2;P2;SDS_P1;SDS_P2;PMS_P1;PMS_P2;Temp;Humidity;BMP_temperature;BMP_pressure;BME280_temperature;BME280_humidity;BME280_pressure;Samples;Min_cycle;Max_cycle;Signal;HPM_P1;HPM_P2
2023/03/15 00:02:07;;;;;;;12.23;3.45;;;3.50;99.90;;;-144.05;55.36;57040.00;5057165;28;20036;-75
2023/03/15 00:04:33;;;;;;;12.23;4.60;;;3.50;99.90;;;-144.05;54.29;57040.00;5056907;28;20067;-76
2023/03/15 00:07:00;;;;;;;12.75;3.40;;;3.50;99.90;;;-144.05;55.07;57001.75;5057342;28;20029;-76
2023/03/15 00:09:26;;;;;;;10.75;2.25;;;3.60;99.90;;;-144.05;55.24;57031.50;5057124;28;20032;-76
2023/03/15 00:11:55;;;;;;;7.53;1.67;;;3.60;99.90;;;-144.05;58.78;57012.38;5057321;28;20037;-77
2023/03/15 00:14:22;;;;;;;10.00;2.38;;;3.50;99.90;;;-144.05;62.39;57029.38;5057527;28;20040;-76
2023/03/15 00:16:48;;;;;;;6.65;1.95;;;3.00;99.90;;;-144.05;65.71;57040.00;5057148;28;20044;-78
2023/03/15 00:19:14;;;;;;;6.95;2.15;;;2.70;99.90;;;-144.05;66.72;57056.97;5056570;28;20373;-75
2023/03/15 00:21:42;;;;;;;7.97;2.20;;;2.50;99.90;;;-144.05;67.64;57035.75;5054847;28;20040;-76
2023/03/15 00:24:10;;;;;;;17.50;4.70;;;2.30;99.90;;;-144.05;68.83;57046.38;5055491;28;20029;-76
2023/03/15 00:26:37;;;;;;;16.70;2.80;;;2.20;99.90;;;-144.05;69.50;57046.38;5055841;28;20037;-78
2023/03/15 00:29:04;;;;;;;12.77;3.67;;;2.10;99.90;;;-144.05;69.90;57046.38;5055657;28;20032;-77
2023/03/15 00:31:30;;;;;;;16.92;2.60;;;2.10;99.90;;;-144.05;70.41;57059.09;5055650;28;20029;-77
2023/03/15 00:33:56;;;;;;;13.65;2.50;;;2.00;99.90;;;-144.05;70.63;57054.88;5055675;28;20028;-78
2023/03/15 00:36:24;;;;;;;13.82;2.53;;;2.00;99.90;;;-144.05;71.44;57056.97;5055770;28;20032;-77
2023/03/15 00:38:54;;;;;;;10.57;3.13;;;2.00;99.90;;;-144.05;71.11;57048.50;5055070;28;20223;-78
2023/03/15 00:41:22;;;;;;;19.83;2.80;;;2.00;99.90;;;-144.05;71.38;57052.75;5056036;28;20029;-77
2023/03/15 00:43:48;;;;;;;14.88;3.13;;;2.00;99.90;;;-144.05;71.92;57052.75;5055934;28;20037;-77
2023/03/15 00:46:17;;;;;;;12.73;3.38;;;2.10;99.90;;;-144.05;71.58;57052.75;5056444;28;20035;-76
2023/03/15 00:48:48;;;;;;;7.57;2.75;;;2.10;99.90;;;-144.05;71.88;57048.50;5054580;28;20430;-79
2023/03/15 00:51:22;;;;;;;9.02;3.10;;;2.20;99.90;;;-144.05;71.38;57046.38;5054298;28;20311;-78
2023/03/15 00:53:51;;;;;;;14.43;2.78;;;2.30;99.90;;;-144.05;70.66;57056.97;5056420;28;20021;-78
2023/03/15 00:56:23;;;;;;;9.63;3.20;;;2.40;99.90;;;-144.05;70.25;57052.75;5055654;28;20033;-77
2023/03/15 00:58:51;;;;;;;13.00;4.32;;;2.40;99.90;;;-144.05;69.99;57029.38;5053834;28;20040;-77
2023/03/15 01:01:25;;;;;;;15.32;3.90;;;2.50;99.90;;;-144.05;69.87;57052.75;5054013;28;20053;-77
2023/03/15 01:03:53;;;;;;;12.43;3.85;;;2.60;99.90;;;-144.05;69.99;57006.00;5054793;28;20400;-76
2023/03/15 01:06:27;;;;;;;19.65;5.32;;;2.70;99.90;;;-144.05;70.07;57035.75;5054488;28;20037;-77
2023/03/15 01:08:56;;;;;;;13.07;5.68;;;2.90;99.90;;;-144.05;70.21;57029.38;5054102;28;20083;-78
2023/03/15 01:11:26;;;;;;;23.65;5.88;;;2.90;99.90;;;-144.05;69.91;57031.50;5054793;28;20079;-78
2023/03/15 01:13:57;;;;;;;15.77;5.65;;;3.00;99.90;;;-144.05;69.17;57054.88;5053397;28;20361;-78
2023/03/15 01:16:25;;;;;;;15.60;5.32;;;3.00;99.90;;;-144.05;69.35;57042.13;5053928;28;20059;-76
2023/03/15 01:18:51;;;;;;;16.92;5.80;;;3.10;99.90;;;-144.05;68.89;57035.75;5054171;28;20099;-76
2023/03/15 01:21:20;;;;;;;10.77;5.55;;;3.00;99.90;;;-144.05;69.59;57035.75;5053106;28;20180;-76
2023/03/15 01:23:46;;;;;;;14.25;5.95;;;2.90;99.90;;;-144.05;70.37;56995.38;5054066;28;20037;-79
2023/03/15 01:26:15;;;;;;;16.30;6.57;;;3.00;99.90;;;-144.05;70.66;57029.38;5054074;28;20033;-76
2023/03/15 01:28:41;;;;;;;15.38;5.82;;;2.90;99.90;;;-144.05;71.43;57018.75;5053943;28;20107;-77
2023/03/15 01:31:34;;;;;;;17.50;5.95;;;2.90;99.90;;;-144.05;71.98;57040.00;5054360;28;20476;-76
2023/03/15 01:34:00;;;;;;;13.00;5.53;;;3.00;99.90;;;-144.05;73.10;57054.88;5052918;28;20063;-77
2023/03/15 01:36:26;;;;;;;13.10;5.97;;;2.90;99.90;;;-144.05;73.57;57033.63;5054644;28;20512;-79
2023/03/15 01:38:53;;;;;;;12.00;5.20;;;2.90;99.90;;;-144.05;73.97;57018.75;5054946;28;20057;-77
2023/03/15 01:41:20;;;;;;;17.27;5.78;;;2.80;99.90;;;-144.05;73.96;57020.88;5055223;28;20075;-78
2023/03/15 01:43:46;;;;;;;10.90;5.88;;;2.80;99.90;;;-144.05;74.69;57046.38;5054191;28;20032;-78
2023/03/15 01:46:22;;;;;;;9.73;6.35;;;2.80;99.90;;;-144.05;75.18;57035.75;5053708;28;20032;-80
2023/03/15 01:49:18;;;;;;;13.18;6.28;;;2.80;99.90;;;-144.05;74.69;57001.75;5052520;28;20040;-77
2023/03/15 01:51:51;;;;;;;15.10;6.57;;;2.70;99.90;;;-144.05;76.26;57054.88;5052698;28;20040;-80
2023/03/15 01:54:44;;;;;;;14.85;6.93;;;2.70;99.90;;;-144.05;76.86;57031.50;5052221;28;20021;-79
2023/03/15 01:57:25;;;;;;;10.85;6.30;;;2.60;99.90;;;-144.05;76.39;57065.47;5054053;28;20064;-80
2023/03/15 02:00:10;;;;;;;11.50;7.05;;;2.60;99.90;;;-144.05;76.67;57059.09;5054587;28;20483;-76
2023/03/15 02:02:45;;;;;;;14.30;7.00;;;2.60;99.90;;;-144.05;77.26;57025.13;5054174;28;20457;-77
2023/03/15 02:05:22;;;;;;;13.10;7.38;;;2.60;99.90;;;-144.05;76.89;57020.88;5054553;28;20029;-77
2023/03/15 02:07:53;;;;;;;12.10;7.07;;;2.60;99.90;;;-144.05;77.46;57025.13;5053832;28;20523;-76
2023/03/15 02:10:39;;;;;;;14.35;7.32;;;2.60;99.90;;;-144.05;78.22;57078.22;5053229;28;20029;-78
2023/03/15 02:13:08;;;;;;;13.00;7.47;;;2.60;99.90;;;-144.05;77.31;57052.75;5053810;28;20493;-77
2023/03/15 02:15:33;;;;;;;12.05;6.82;;;2.60;99.90;;;-144.05;77.49;57010.25;5054774;28;20078;-78
2023/03/15 02:17:59;;;;;;;14.48;5.82;;;2.60;99.90;;;-144.05;78.33;57031.50;5058032;28;20096;-77
2023/03/15 02:20:50;;;;;;;8.55;5.53;;;2.60;99.90;;;-144.05;78.56;57025.13;5055734;28;20041;-77
2023/03/15 02:23:21;;;;;;;6.18;4.10;;;2.60;99.90;;;-144.05;78.30;57014.50;5055115;28;20447;-78
2023/03/15 02:26:36;;;;;;;5.78;4.40;;;2.60;99.90;;;-144.05;77.02;57016.63;5053296;28;20465;-78
2023/03/15 02:29:02;;;;;;;7.45;3.85;;;2.70;99.90;;;-144.05;77.66;57033.63;5054098;28;20064;-77
2023/03/15 02:31:28;;;;;;;6.93;4.03;;;2.60;99.90;;;-144.05;78.14;57031.50;5053587;28;20466;-79
2023/03/15 02:33:54;;;;;;;4.82;3.83;;;2.60;99.90;;;-144.05;78.05;57027.25;5054140;28;20065;-77
2023/03/15 02:36:26;;;;;;;6.22;3.88;;;2.60;99.90;;;-144.05;77.81;57010.25;5053266;28;20039;-79
2023/03/15 02:38:55;;;;;;;6.68;4.13;;;2.70;99.90;;;-144.05;77.42;57023.00;5052908;28;20496;-77
2023/03/15 02:41:32;;;;;;;9.50;4.40;;;2.70;99.90;;;-144.05;77.29;57061.22;5053322;28;20067;-78
2023/03/15 02:44:26;;;;;;;8.75;5.35;;;2.60;99.90;;;-144.05;77.55;57056.97;5053092;28;20546;-78
2023/03/15 02:47:03;;;;;;;7.03;4.50;;;2.60;99.90;;;-144.05;76.62;57044.25;5052550;28;20376;-79
2023/03/15 02:49:39;;;;;;;9.63;5.68;;;2.70;99.90;;;-144.05;76.60;57025.13;5052167;28;20032;-79
2023/03/15 02:52:06;;;;;;;9.23;5.40;;;2.70;99.90;;;-144.05;76.86;57046.38;5053248;28;20033;-80
2023/03/15 02:54:33;;;;;;;9.13;5.72;;;2.70;99.90;;;-144.05;76.39;57048.50;5052829;28;20119;-77
2023/03/15 02:57:01;;;;;;;10.88;6.65;;;2.70;99.90;;;-144.05;75.72;57031.50;5052683;28;20086;-76
2023/03/15 02:59:27;;;;;;;11.00;5.70;;;2.70;99.90;;;-144.05;76.27;57020.88;5053398;28;20033;-78
2023/03/15 03:01:53;;;;;;;8.45;5.82;;;2.70;99.90;;;-144.05;75.48;57029.38;5053598;28;20371;-78
2023/03/15 03:04:19;;;;;;;9.30;5.80;;;2.70;99.90;;;-144.05;75.75;57035.75;5051917;28;20480;-76
2023/03/15 03:06:45;;;;;;;10.80;7.15;;;2.70;99.90;;;-144.05;76.62;57054.88;5053412;28;20051;-76
2023/03/15 03:09:11;;;;;;;10.43;5.82;;;2.70;99.90;;;-144.05;75.67;57054.88;5052713;28;20137;-77
2023/03/15 03:11:38;;;;;;;11.57;6.45;;;2.80;99.90;;;-144.05;76.17;57006.00;5051911;28;20036;-78
2023/03/15 03:14:04;;;;;;;10.68;7.07;;;2.70;99.90;;;-144.05;75.86;57031.50;5053202;28;20029;-78
2023/03/15 03:16:31;;;;;;;10.20;7.43;;;2.80;99.90;;;-144.05;75.88;57061.22;5053795;28;20056;-80
2023/03/15 03:18:57;;;;;;;11.68;8.38;;;2.80;99.90;;;-144.05;76.07;57018.75;5052074;28;20037;-78
2023/03/15 03:21:23;;;;;;;14.27;7.75;;;2.80;99.90;;;-144.05;76.11;57050.63;5052882;28;20397;-77
2023/03/15 03:23:49;;;;;;;18.55;8.55;;;2.80;99.90;;;-144.05;76.20;57033.63;5053656;28;20468;-78
2023/03/15 03:26:18;;;;;;;12.90;9.18;;;2.80;99.90;;;-144.05;76.21;57048.50;5053892;28;20546;-78
2023/03/15 03:28:46;;;;;;;18.90;9.10;;;2.90;99.90;;;-144.05;75.79;57029.38;5053352;28;20037;-80
2023/03/15 03:31:23;;;;;;;18.95;9.52;;;2.90;99.90;;;-144.05;76.07;57035.75;5053555;28;20049;-77
2023/03/15 03:33:50;;;;;;;16.10;8.98;;;2.90;99.90;;;-144.05;75.68;57040.00;5053490;28;20025;-78
2023/03/15 03:36:16;;;;;;;17.42;8.60;;;2.90;99.90;;;-144.05;75.52;57046.38;5053991;28;20029;-79
2023/03/15 03:38:45;;;;;;;19.77;8.43;;;2.90;99.90;;;-144.05;75.94;57027.25;5051879;28;20021;-77
2023/03/15 03:41:14;;;;;;;16.23;8.95;;;2.90;99.90;;;-144.05;75.92;57042.13;5051635;28;20447;-77
2023/03/15 03:43:40;;;;;;;17.05;10.13;;;2.90;99.90;;;-144.05;75.92;57029.38;5053588;28;20391;-77
2023/03/15 03:46:06;;;;;;;18.02;9.85;;;2.90;99.90;;;-144.05;75.93;57029.38;5052213;28;20074;-77
2023/03/15 03:48:32;;;;;;;20.83;9.65;;;2.90;99.90;;;-144.05;75.91;57027.25;5053759;28;20075;-78
2023/03/15 03:50:58;;;;;;;16.13;10.00;;;2.90;99.90;;;-144.05;75.92;57006.00;5054724;28;20033;-78
2023/03/15 03:53:25;;;;;;;18.17;9.98;;;2.90;99.90;;;-144.05;76.43;57031.50;5053349;28;20417;-79
2023/03/15 03:55:53;;;;;;;13.85;8.90;;;2.90;99.90;;;-144.05;75.81;57040.00;5053735;28;20063;-78
2023/03/15 03:58:20;;;;;;;19.63;9.75;;;2.90;99.90;;;-144.05;75.72;57027.25;5051981;28;20029;-77
2023/03/15 04:00:46;;;;;;;19.80;10.85;;;2.90;99.90;;;-144.05;76.02;57040.00;5051133;28;20032;-79
2023/03/15 04:03:12;;;;;;;19.13;10.10;;;2.90;99.90;;;-144.05;75.86;57033.63;5053849;28;20510;-77
2023/03/15 04:05:38;;;;;;;15.73;9.95;;;2.90;99.90;;;-144.05;75.51;57035.75;5056937;28;20495;-80
2023/03/15 04:08:04;;;;;;;15.23;10.18;;;2.90;99.90;;;-144.05;75.42;57040.00;5059414;28;20036;-80
2023/03/15 04:10:33;;;;;;;17.67;9.70;;;2.90;99.90;;;-144.05;74.93;57027.25;5061166;28;20162;-78
2023/03/15 04:13:01;;;;;;;18.67;10.20;;;2.90;99.90;;;-144.05;74.92;57056.97;5053022;28;20025;-78
2023/03/15 04:15:26;;;;;;;16.80;10.80;;;2.90;99.90;;;-144.05;74.77;57014.50;5051980;28;20017;-78
2023/03/15 04:17:56;;;;;;;17.70;11.13;;;2.80;99.90;;;-144.05;75.24;57031.50;5052299;28;20033;-77
2023/03/15 04:20:25;;;;;;;19.20;10.70;;;2.80;99.90;;;-144.05;75.62;57042.13;5051057;28;20485;-77
2023/03/15 04:22:53;;;;;;;17.60;10.57;;;2.80;99.90;;;-144.05;75.61;57016.63;5052479;28;20033;-78
2023/03/15 04:25:20;;;;;;;20.95;10.90;;;2.80;99.90;;;-144.05;75.55;57033.63;5052262;28;20097;-78
2023/03/15 04:27:57;;;;;;;21.13;11.88;;;2.80;99.90;;;-144.05;75.60;57018.75;5052793;28;20033;-76
2023/03/15 04:30:29;;;;;;;18.13;9.25;;;2.80;99.90;;;-144.05;75.59;57023.00;5052604;28;20120;-78
2023/03/15 04:33:02;;;;;;;20.27;9.80;;;2.80;99.90;;;-144.05;75.26;57042.13;5052897;28;20029;-79
2023/03/15 04:35:38;;;;;;;17.48;8.50;;;2.90;99.90;;;-144.05;74.38;57010.25;5056071;28;20559;-80
2023/03/15 04:38:05;;;;;;;14.88;8.93;;;2.90;99.90;;;-144.05;74.33;57027.25;5056609;28;20071;-76
2023/03/15 04:40:33;;;;;;;15.98;8.32;;;2.90;99.90;;;-144.05;74.54;57031.50;5056925;28;20036;-76
2023/03/15 04:43:04;;;;;;;12.45;7.60;;;2.80;99.90;;;-144.05;74.27;56997.50;5055064;28;20028;-78
2023/03/15 04:45:31;;;;;;;14.77;9.25;;;2.80;99.90;;;-144.05;74.32;57056.97;5056198;28;20029;-79
2023/03/15 04:48:00;;;;;;;12.25;7.45;;;2.80;99.90;;;-144.05;74.51;57052.75;5055553;28;20507;-76
2023/03/15 04:50:28;;;;;;;12.77;7.05;;;2.90;99.90;;;-144.05;74.27;57014.50;5054861;28;20025;-79
2023/03/15 04:52:54;;;;;;;13.45;7.57;;;2.80;99.90;;;-144.05;73.76;57035.75;5056994;28;20033;-77
2023/03/15 04:55:20;;;;;;;15.02;7.55;;;2.90;99.90;;;-144.05;73.65;57031.50;5055661;28;20067;-77
2023/03/15 04:57:45;;;;;;;12.60;6.47;;;2.80;99.90;;;-144.05;74.27;57027.25;5055305;28;20104;-77
2023/03/15 05:00:13;;;;;;;9.82;6.88;;;2.80;99.90;;;-144.05;73.89;57025.13;5055081;28;20029;-77
2023/03/15 05:02:40;;;;;;;9.88;5.97;;;2.80;99.90;;;-144.05;74.00;57042.13;5053693;28;20028;-79
2023/03/15 05:05:11;;;;;;;10.93;6.20;;;2.70;99.90;;;-144.05;73.55;57059.09;5059302;28;20396;-76
2023/03/15 05:07:38;;;;;;;9.85;6.15;;;2.70;99.90;;;-144.05;74.29;57044.25;5057564;28;20075;-78
2023/03/15 05:10:06;;;;;;;12.75;6.50;;;2.70;99.90;;;-144.05;74.02;57042.13;5056145;28;20086;-76
2023/03/15 05:12:35;;;;;;;13.30;6.25;;;2.70;99.90;;;-144.05;73.99;57025.13;5057577;28;20116;-78
2023/03/15 05:15:01;;;;;;;10.52;5.97;;;2.70;99.90;;;-144.05;73.70;57052.75;5056955;28;20528;-77
2023/03/15 05:17:27;;;;;;;10.73;5.88;;;2.70;99.90;;;-144.05;73.82;57027.25;5055134;28;20084;-79
2023/03/15 05:19:53;;;;;;;12.20;5.75;;;2.70;99.90;;;-144.05;73.83;57033.63;5055030;28;20032;-79
2023/03/15 05:22:18;;;;;;;12.07;5.78;;;2.70;99.90;;;-144.05;73.53;57003.88;5055025;28;20025;-79
2023/03/15 05:24:44;;;;;;;11.75;5.85;;;2.70;99.90;;;-144.05;73.26;57020.88;5055480;28;20534;-79
2023/03/15 05:27:12;;;;;;;10.30;5.43;;;2.70;99.90;;;-144.05;73.28;57014.50;5053871;28;20078;-78
2023/03/15 05:29:38;;;;;;;9.77;5.43;;;2.70;99.90;;;-144.05;72.95;57056.97;5059375;28;20032;-81
2023/03/15 05:32:04;;;;;;;15.50;7.75;;;2.70;99.90;;;-144.05;73.23;57003.88;5055180;28;20397;-78
2023/03/15 05:34:31;;;;;;;12.63;5.78;;;2.70;99.90;;;-144.05;73.07;57023.00;5056067;28;20043;-80
2023/03/15 05:36:58;;;;;;;11.13;6.18;;;2.70;99.90;;;-144.05;72.85;57033.63;5061926;28;20048;-79
2023/03/15 05:39:24;;;;;;;10.93;5.93;;;2.70;99.90;;;-144.05;72.77;57027.25;5061972;28;20025;-76
2023/03/15 05:41:50;;;;;;;11.60;6.28;;;2.70;99.90;;;-144.05;72.49;57035.75;5060808;28;20062;-80
2023/03/15 05:44:16;;;;;;;11.27;5.95;;;2.70;99.90;;;-144.05;73.25;57029.38;5062257;28;20090;-81
2023/03/15 05:46:43;;;;;;;16.98;6.75;;;2.70;99.90;;;-144.05;73.04;57027.25;5058691;28;20025;-78
2023/03/15 05:49:09;;;;;;;18.50;7.18;;;2.70;99.90;;;-144.05;73.35;57042.13;5063415;28;20377;-77
2023/03/15 05:51:34;;;;;;;17.38;7.45;;;2.70;99.90;;;-144.05;73.44;57016.63;5061103;28;20044;-78
2023/03/15 05:54:00;;;;;;;17.92;7.07;;;2.70;99.90;;;-144.05;73.05;57029.38;5061413;28;20037;-81
2023/03/15 05:56:26;;;;;;;15.00;6.95;;;2.70;99.90;;;-144.05;73.26;57023.00;5062396;28;20121;-78
2023/03/15 05:58:52;;;;;;;12.43;6.88;;;2.70;99.90;;;-144.05;73.41;57033.63;5057294;28;20029;-78
2023/03/15 06:01:18;;;;;;;9.82;6.60;;;2.70;99.90;;;-144.05;73.40;57027.25;5054457;28;20511;-78
2023/03/15 06:03:44;;;;;;;10.35;5.72;;;2.70;99.90;;;-144.05;72.95;57031.50;5053560;28;20135;-77
2023/03/15 06:06:09;;;;;;;11.43;5.63;;;2.80;99.90;;;-144.05;72.98;57025.13;5055722;28;20373;-77
2023/03/15 06:08:35;;;;;;;10.93;7.20;;;2.80;99.90;;;-144.05;73.68;57020.88;5054250;28;20027;-76
2023/03/15 06:11:01;;;;;;;12.85;6.90;;;2.80;99.90;;;-144.05;73.79;57033.63;5052755;28;20055;-76
2023/03/15 06:13:27;;;;;;;11.55;7.47;;;2.80;99.90;;;-144.05;73.72;57042.13;5053148;28;20021;-79
2023/03/15 06:15:53;;;;;;;10.98;7.60;;;2.80;99.90;;;-144.05;73.50;57010.25;5054203;28;20040;-78
2023/03/15 06:18:19;;;;;;;12.23;7.60;;;2.80;99.90;;;-144.05;73.70;57031.50;5052325;28;20040;-76
2023/03/15 06:20:44;;;;;;;14.60;8.23;;;2.80;99.90;;;-144.05;73.75;57018.75;5053853;28;20033;-76
2023/03/15 06:23:10;;;;;;;12.32;8.05;;;2.80;99.90;;;-144.05;73.70;57020.88;5053349;28;20024;-78
2023/03/15 06:25:36;;;;;;;20.45;10.38;;;2.80;99.90;;;-144.05;73.79;57035.75;5054697;28;20540;-78
2023/03/15 06:28:02;;;;;;;19.33;10.45;;;2.80;99.90;;;-144.05;73.93;56991.13;5054934;28;20068;-76
2023/03/15 06:30:28;;;;;;;16.67;10.32;;;2.80;99.90;;;-144.05;73.97;57035.75;5055325;28;20056;-76
2023/03/15 06:32:54;;;;;;;24.60;13.85;;;2.90;99.90;;;-144.05;74.01;57042.13;5055287;28;20065;-76
2023/03/15 06:35:21;;;;;;;19.27;11.85;;;2.90;99.90;;;-144.05;73.80;57031.50;5054072;28;20086;-75
2023/03/15 06:37:47;;;;;;;34.83;19.75;;;2.90;99.90;;;-144.05;73.92;57031.50;5056878;28;20084;-78
2023/03/15 06:40:13;;;;;;;21.33;15.23;;;2.90;99.90;;;-144.05;73.80;57040.00;5068804;28;20035;-77
2023/03/15 06:42:43;;;;;;;17.27;11.30;;;2.90;99.90;;;-144.05;73.34;57014.50;5069392;28;20025;-79
2023/03/15 06:45:10;;;;;;;16.38;10.10;;;3.00;99.90;;;-144.05;73.26;57048.50;5053571;28;20029;-77
2023/03/15 06:47:35;;;;;;;15.95;10.10;;;3.00;99.90;;;-144.05;72.86;57001.75;5053789;28;20033;-77
2023/03/15 06:50:02;;;;;;;14.93;9.55;;;3.00;99.90;;;-144.05;73.13;56999.63;5052856;28;20438;-76
2023/03/15 06:52:28;;;;;;;16.70;10.65;;;3.10;99.90;;;-144.05;72.92;57023.00;5052964;28;20386;-76
2023/03/15 06:54:54;;;;;;;15.38;10.68;;;3.20;99.90;;;-144.05;72.39;57010.25;5051506;28;20037;-77
2023/03/15 06:57:20;;;;;;;12.25;9.30;;;3.20;99.90;;;-144.05;72.29;57033.63;5052916;28;20388;-78
2023/03/15 06:59:45;;;;;;;19.48;10.68;;;3.20;99.90;;;-144.05;72.07;56989.00;5052507;28;20029;-78
2023/03/15 07:02:17;;;;;;;36.83;16.35;;;3.10;99.90;;;-144.05;71.70;57031.50;5051587;28;20360;-78
2023/03/15 07:04:44;;;;;;;32.63;17.25;;;3.10;99.90;;;-144.05;71.85;57023.00;5051861;28;20090;-76
2023/03/15 07:07:12;;;;;;;22.88;12.82;;;3.00;99.90;;;-144.05;72.27;57035.75;5052018;28;20036;-76
2023/03/15 07:09:38;;;;;;;28.48;16.23;;;3.00;99.90;;;-144.05;72.12;57018.75;5052459;28;20131;-77
2023/03/15 07:12:05;;;;;;;25.95;15.75;;;3.00;99.90;;;-144.05;72.33;57040.00;5052716;28;20037;-77
2023/03/15 07:14:33;;;;;;;21.08;11.90;;;3.10;99.90;;;-144.05;72.28;57040.00;5051377;28;20032;-75
2023/03/15 07:17:00;;;;;;;20.15;12.80;;;3.10;99.90;;;-144.05;72.04;57020.88;5053464;28;20078;-77
2023/03/15 07:19:25;;;;;;;15.35;10.10;;;3.00;99.90;;;-144.05;71.94;57042.13;5053002;28;20061;-76
2023/03/15 07:21:51;;;;;;;20.00;10.68;;;3.10;99.90;;;-144.05;71.66;57014.50;5053586;28;20057;-75
2023/03/15 07:24:17;;;;;;;17.83;10.52;;;3.10;99.90;;;-144.05;71.46;57003.88;5053057;28;20025;-78
2023/03/15 07:26:43;;;;;;;17.30;10.70;;;3.20;99.90;;;-144.05;71.46;57014.50;5053177;28;20033;-77
2023/03/15 07:29:09;;;;;;;15.95;9.15;;;3.10;99.90;;;-144.05;70.58;57059.09;5053152;28;20092;-76
2023/03/15 07:31:35;;;;;;;12.23;8.93;;;3.10;99.90;;;-144.05;70.20;57012.38;5054475;28;20053;-77
2023/03/15 07:34:01;;;;;;;18.35;9.18;;;3.10;99.90;;;-144.05;69.66;57023.00;5055847;28;20393;-77
2023/03/15 07:36:27;;;;;;;14.45;8.40;;;3.20;99.90;;;-144.05;69.14;57016.63;5054528;28;20021;-76
2023/03/15 07:38:53;;;;;;;15.43;7.18;;;3.20;99.90;;;-144.05;68.66;57044.25;5052917;28;20029;-77
2023/03/15 07:41:19;;;;;;;11.13;7.43;;;3.30;99.90;;;-144.05;68.42;57020.88;5051491;28;20025;-76
2023/03/15 07:43:45;;;;;;;12.85;7.05;;;3.30;99.90;;;-144.05;68.12;57029.38;5052676;28;20025;-77
2023/03/15 07:46:11;;;;;;;18.58;7.45;;;3.30;99.90;;;-144.05;67.88;57040.00;5052003;28;20029;-76
2023/03/15 07:48:36;;;;;;;12.18;7.35;;;3.40;99.90;;;-144.05;67.48;57031.50;5052383;28;20365;-76
2023/03/15 07:51:02;;;;;;;20.45;6.90;;;3.40;99.90;;;-144.05;67.07;57027.25;5053064;28;20045;-78
2023/03/15 07:53:28;;;;;;;12.55;7.50;;;3.30;99.90;;;-144.05;66.88;57027.25;5065537;28;20032;-77
2023/03/15 07:55:54;;;;;;;12.60;7.45;;;3.40;99.90;;;-144.05;66.83;57020.88;5052758;28;20544;-76
2023/03/15 07:58:20;;;;;;;9.98;6.13;;;3.40;99.90;;;-144.05;67.21;57023.00;5052733;28;20112;-79
2023/03/15 08:00:47;;;;;;;10.40;6.47;;;3.40;99.90;;;-144.05;66.41;57018.75;5053477;28;20366;-77
2023/03/15 08:03:13;;;;;;;11.02;6.55;;;3.40;99.90;;;-144.05;66.61;57027.25;5052023;28;20441;-77
2023/03/15 08:05:38;;;;;;;12.00;6.75;;;3.50;99.90;;;-144.05;65.17;56995.38;5052142;28;20071;-76
2023/03/15 08:08:05;;;;;;;11.48;6.53;;;3.80;99.90;;;-144.05;63.96;57027.25;5053850;28;20021;-78
2023/03/15 08:10:31;;;;;;;12.32;6.95;;;3.90;99.90;;;-144.05;63.08;56999.63;5054947;28;20033;-77
2023/03/15 08:12:57;;;;;;;14.68;7.82;;;3.80;99.90;;;-144.05;63.60;56997.50;5056214;28;20059;-74
2023/03/15 08:15:23;;;;;;;10.98;6.32;;;4.20;99.90;;;-144.05;60.99;57016.63;5058441;28;20480;-78
2023/03/15 08:17:49;;;;;;;12.75;5.93;;;4.70;99.90;;;-144.05;60.63;56982.66;5062799;28;20184;-77
2023/03/15 08:20:16;;;;;;;11.68;5.57;;;5.00;99.90;;;-144.05;59.16;56976.28;5059549;28;20029;-77
2023/03/15 08:22:46;;;;;;;9.43;4.45;;;5.60;99.90;;;-144.05;54.88;56967.78;5056343;28;20033;-76
2023/03/15 08:25:17;;;;;;;10.25;4.50;;;5.90;99.90;;;-144.05;55.17;56976.28;5056552;28;20036;-76
2023/03/15 08:27:43;;;;;;;7.85;4.32;;;6.20;99.90;;;-144.05;54.21;56984.78;5055146;28;20104;-75
2023/03/15 08:30:14;;;;;;;9.05;3.78;;;5.90;99.90;;;-144.05;54.94;56982.66;5056422;28;20056;-76
2023/03/15 08:32:44;;;;;;;15.80;6.78;;;5.70;99.90;;;-144.05;55.48;57006.00;5056229;28;20040;-77
2023/03/15 08:35:14;;;;;;;10.93;5.13;;;5.70;99.90;;;-144.05;55.53;56997.50;5055468;28;20025;-77
2023/03/15 08:37:40;;;;;;;16.50;6.15;;;5.60;99.90;;;-144.05;57.04;57001.75;5056401;28;20055;-77
2023/03/15 08:40:09;;;;;;;9.15;4.80;;;5.10;99.90;;;-144.05;58.10;56995.38;5060103;28;20048;-78
2023/03/15 08:42:37;;;;;;;11.93;4.95;;;5.10;99.90;;;-144.05;58.23;57003.88;5056483;28;20029;-76
2023/03/15 08:45:08;;;;;;;10.05;4.80;;;5.20;99.90;;;-144.05;57.88;56986.91;5056283;28;20044;-75
2023/03/15 08:47:35;;;;;;;10.98;4.35;;;5.10;99.90;;;-144.05;57.63;56995.38;5056254;28;20517;-75
2023/03/15 08:50:04;;;;;;;6.70;4.13;;;5.00;99.90;;;-144.05;57.46;56991.13;5056092;28;20049;-75
2023/03/15 08:52:31;;;;;;;9.52;4.20;;;5.60;99.90;;;-144.05;54.38;56978.41;5054590;28;20029;-75
2023/03/15 08:54:57;;;;;;;8.18;3.58;;;6.10;99.90;;;-144.05;53.82;56980.53;5055313;28;20032;-76
2023/03/15 08:57:25;;;;;;;8.35;4.00;;;6.50;99.90;;;-144.05;52.86;56984.78;5056164;28;20029;-77
2023/03/15 08:59:52;;;;;;;8.60;4.10;;;6.70;99.90;;;-144.05;52.28;56980.53;5054476;28;20025;-78
2023/03/15 09:02:18;;;;;;;7.80;4.05;;;6.20;99.90;;;-144.05;53.97;56976.28;5056130;28;20036;-77
2023/03/15 09:04:44;;;;;;;8.27;4.55;;;6.00;99.90;;;-144.05;53.66;56967.78;5053414;28;20036;-77
2023/03/15 09:07:11;;;;;;;8.43;5.00;;;6.20;99.90;;;-144.05;52.20;56972.03;5055755;28;20029;-76
2023/03/15 09:09:37;;;;;;;12.73;4.88;;;6.60;99.90;;;-144.05;51.36;56980.53;5055705;28;20035;-76
2023/03/15 09:12:03;;;;;;;12.77;4.43;;;7.30;99.90;;;-144.05;49.71;56965.66;5056218;28;20021;-77
2023/03/15 09:14:29;;;;;;;14.32;7.35;;;7.20;99.90;;;-144.05;51.34;56965.66;5056628;28;20029;-76
2023/03/15 09:16:55;;;;;;;9.82;5.35;;;6.60;99.90;;;-144.05;52.27;56986.91;5056400;28;20488;-75
2023/03/15 09:19:21;;;;;;;13.98;6.10;;;6.00;99.90;;;-144.05;53.71;56993.25;5055564;28;20044;-77
2023/03/15 09:21:47;;;;;;;15.80;5.90;;;5.60;99.90;;;-144.05;54.11;56978.41;5056092;28;20029;-76
2023/03/15 09:24:13;;;;;;;11.18;5.35;;;5.40;99.90;;;-144.05;53.61;56976.28;5055116;28;20037;-76
2023/03/15 09:26:39;;;;;;;11.77;4.60;;;6.00;99.90;;;-144.05;50.67;56991.13;5055182;28;20028;-76
2023/03/15 09:29:08;;;;;;;13.18;4.15;;;6.80;99.90;;;-144.05;49.15;56999.63;5054978;28;20035;-77
2023/03/15 09:31:34;;;;;;;8.00;4.30;;;6.80;99.90;;;-144.05;50.44;56997.50;5054660;28;20029;-76
2023/03/15 09:34:00;;;;;;;13.63;5.78;;;6.40;99.90;;;-144.05;51.72;56984.78;5054596;28;20433;-79
2023/03/15 09:36:26;;;;;;;11.23;3.80;;;6.10;99.90;;;-144.05;51.25;56972.03;5054463;28;20099;-77
2023/03/15 09:38:52;;;;;;;12.43;4.38;;;6.00;99.90;;;-144.05;51.61;56972.03;5055823;28;20083;-76
2023/03/15 09:41:46;;;;;;;11.00;4.68;;;6.70;99.90;;;-144.05;48.75;56955.03;5055045;28;20079;-76
2023/03/15 09:44:51;;;;;;;8.05;4.00;;;7.00;99.90;;;-144.05;47.09;56989.00;5054057;28;20029;-76
2023/03/15 09:48:06;;;;;;;11.70;4.45;;;7.00;99.90;;;-144.05;47.77;56948.66;5014385;28;20052;-77
2023/03/15 09:50:45;;;;;;;19.75;5.50;;;7.50;99.90;;;-144.05;46.78;56963.53;5043610;28;20037;-76
2023/03/15 09:53:58;;;;;;;10.02;4.22;;;8.20;99.90;;;-144.05;45.85;56955.03;5054331;28;20045;-78
2023/03/15 09:56:36;;;;;;;10.38;3.88;;;8.20;99.90;;;-144.05;46.14;56942.28;5029249;28;20105;-78
2023/03/15 09:59:04;;;;;;;12.10;4.38;;;8.40;99.90;;;-144.05;45.13;56957.16;5054532;28;20484;-76
2023/03/15 10:01:38;;;;;;;15.18;3.78;;;8.70;99.90;;;-144.05;45.39;56993.25;5052594;28;20035;-76
2023/03/15 10:04:33;;;;;;;13.07;3.67;;;8.30;99.90;;;-144.05;46.61;56935.91;5054017;28;20025;-78
2023/03/15 10:07:02;;;;;;;10.20;4.32;;;7.50;99.90;;;-144.05;47.51;56989.00;5054101;28;20483;-76
2023/03/15 10:09:33;;;;;;;11.23;4.88;;;7.00;99.90;;;-144.05;49.08;56991.13;5053874;28;20056;-76
2023/03/15 10:12:12;;;;;;;15.02;6.05;;;6.60;99.90;;;-144.05;49.93;56989.00;5054266;28;20114;-76
2023/03/15 10:15:00;;;;;;;9.85;5.05;;;6.30;99.90;;;-144.05;50.30;57001.75;5053978;28;20032;-76